createdAt,value
2016-05-25T00:00:16.406Z,11.21
2016-05-25T00:01:16.238Z,11.17
2016-05-25T00:02:16.380Z,11.19
2016-05-25T00:03:16.352Z,11.21
2016-05-25T00:04:16.339Z,11.24
2016-05-25T00:05:16.327Z,11.1
2016-05-25T00:06:16.314Z,11.2
2016-05-25T00:07:16.300Z,11.19
2016-05-25T00:08:16.288Z,11.17
2016-05-25T00:09:16.260Z,11.16
2016-05-25T00:10:16.246Z,11.2
2016-05-25T00:11:16.218Z,11.17
2016-05-25T00:12:16.063Z,11.25
2016-05-25T00:13:16.207Z,11.13
2016-05-25T00:14:16.179Z,11.09
2016-05-25T00:15:16.165Z,11.16
2016-05-25T00:16:16.560Z,11.13
2016-05-25T00:17:16.140Z,11.21
2016-05-25T00:18:16.127Z,11.21
2016-05-25T00:19:16.114Z,11.2
2016-05-25T00:20:16.117Z,11.11
2016-05-25T00:21:16.088Z,11.24
2016-05-25T00:22:16.059Z,11.29
2016-05-25T00:23:16.062Z,11.21
2016-05-25T00:24:16.034Z,11.21
2016-05-25T00:25:15.865Z,11.24
2016-05-25T00:26:16.008Z,11.31
2016-05-25T00:27:15.979Z,11.21
2016-05-25T00:28:15.967Z,11.28
2016-05-25T00:29:15.954Z,11.27
2016-05-25T00:30:15.956Z,11.28
2016-05-25T00:31:16.303Z,11.27
2016-05-25T00:32:15.914Z,11.28
2016-05-25T00:33:15.902Z,11.29
2016-05-25T00:34:15.905Z,11.21
2016-05-25T00:35:15.875Z,11.24
2016-05-25T00:36:15.847Z,11.2
2016-05-25T00:37:15.834Z,11.25
2016-05-25T00:38:15.666Z,11.27
2016-05-25T00:39:15.809Z,11.21
2016-05-25T00:40:15.796Z,11.19
2016-05-25T00:41:15.767Z,11.21
2016-05-25T00:42:15.754Z,11.21
2016-05-25T00:43:15.585Z,11.2
2016-05-25T00:44:15.728Z,11.24
2016-05-25T00:45:15.559Z,11.29
2016-05-25T00:46:16.077Z,11.24
2016-05-25T00:47:15.518Z,11.21
2016-05-25T00:48:15.661Z,11.28
2016-05-25T00:49:15.663Z,11.27
2016-05-25T00:50:15.666Z,11.21
2016-05-25T00:51:15.497Z,11.31
2016-05-25T00:52:15.625Z,11.27
2016-05-25T00:53:15.581Z,11.31
2016-05-25T00:54:15.583Z,11.29
2016-05-25T00:55:15.555Z,11.29
2016-05-25T00:56:15.557Z,11.19
2016-05-25T00:57:15.528Z,11.32
2016-05-25T00:58:15.531Z,11.24
2016-05-25T00:59:15.487Z,11.19
2016-05-25T01:00:15.693Z,11.2
2016-05-25T01:01:15.258Z,11.16
2016-05-25T01:02:15.448Z,11.19
2016-05-25T01:03:15.295Z,11.21
2016-05-25T01:04:15.438Z,11.06
2016-05-25T01:05:15.410Z,11.09
2016-05-25T01:06:15.240Z,11.13
2016-05-25T01:07:15.383Z,11.11
2016-05-25T01:08:15.355Z,11.11
2016-05-25T01:09:15.186Z,11.13
2016-05-25T01:10:15.174Z,11.11
2016-05-25T01:11:15.176Z,11.17
2016-05-25T01:12:15.304Z,11.17
2016-05-25T01:13:15.290Z,11.06
2016-05-25T01:14:15.262Z,11.1
2016-05-25T01:15:15.280Z,11.17
2016-05-25T01:16:16.126Z,11.17
2016-05-25T01:17:15.223Z,11.09
2016-05-25T01:18:15.054Z,11.11
2016-05-25T01:19:15.198Z,11.17
2016-05-25T01:20:15.028Z,11.16
2016-05-25T01:21:15.203Z,11.11
2016-05-25T01:22:15.159Z,11.11
2016-05-25T01:23:15.129Z,11.17
2016-05-25T01:24:15.117Z,11.17
2016-05-25T01:25:14.948Z,11.11
2016-05-25T01:26:15.091Z,11.21
2016-05-25T01:27:15.079Z,11.17
2016-05-25T01:28:15.065Z,11.17
2016-05-25T01:29:15.037Z,11.17
2016-05-25T01:30:15.023Z,11.24
2016-05-25T01:31:15.011Z,11.14
2016-05-25T01:32:14.998Z,11.16
2016-05-25T01:33:14.985Z,11.06
2016-05-25T01:34:14.972Z,11.09
2016-05-25T01:35:14.959Z,11.16
2016-05-25T01:36:14.946Z,11.14
2016-05-25T01:37:14.933Z,11.13
2016-05-25T01:38:14.904Z,11.13
2016-05-25T01:39:14.735Z,11.09
2016-05-25T01:40:14.880Z,11.1
2016-05-25T01:41:14.710Z,11.09
2016-05-25T01:42:14.838Z,11.03
2016-05-25T01:43:14.683Z,11.03
2016-05-25T01:44:14.827Z,10.98
2016-05-25T01:45:14.799Z,10.98
2016-05-25T01:46:14.848Z,11.03
2016-05-25T01:47:14.773Z,11.03
2016-05-25T01:48:14.744Z,11.03
2016-05-25T01:49:14.747Z,11.07
2016-05-25T01:50:14.734Z,10.96
2016-05-25T01:51:14.720Z,11.01
2016-05-25T01:52:14.693Z,10.94
2016-05-25T01:53:14.679Z,11.06
2016-05-25T01:54:14.651Z,11.02
2016-05-25T01:55:14.497Z,11.02
2016-05-25T01:56:14.640Z,10.99
2016-05-25T01:57:14.628Z,10.98
2016-05-25T01:58:14.598Z,10.96
2016-05-25T01:59:14.586Z,11.09
2016-05-25T02:00:14.573Z,11.02
2016-05-25T02:01:14.873Z,11.01
2016-05-25T02:02:14.548Z,10.98
2016-05-25T02:03:14.534Z,11.03
2016-05-25T02:04:14.506Z,10.91
2016-05-25T02:05:14.508Z,11.03
2016-05-25T02:06:14.480Z,11.01
2016-05-25T02:07:14.467Z,10.98
2016-05-25T02:08:14.438Z,10.99
2016-05-25T02:09:14.441Z,10.99
2016-05-25T02:10:14.444Z,11.03
2016-05-25T02:11:14.400Z,10.98
2016-05-25T02:12:14.387Z,11.02
2016-05-25T02:13:14.374Z,11.09
2016-05-25T02:14:14.346Z,11.03
2016-05-25T02:15:14.348Z,10.98
2016-05-25T02:16:14.179Z,11.02
2016-05-25T02:17:14.306Z,11.03
2016-05-25T02:18:14.293Z,11.09
2016-05-25T02:19:14.280Z,11.03
2016-05-25T02:20:14.268Z,11.1
2016-05-25T02:21:14.254Z,11.13
2016-05-25T02:22:14.085Z,11.14
2016-05-25T02:23:14.229Z,11.06
2016-05-25T02:24:14.216Z,11.09
2016-05-25T02:25:14.187Z,11.11
2016-05-25T02:26:14.159Z,11.07
2016-05-25T02:27:14.161Z,11.07
2016-05-25T02:28:14.148Z,11.1
2016-05-25T02:29:14.135Z,11.14
2016-05-25T02:30:14.122Z,11.07
2016-05-25T02:31:14.547Z,11.07
2016-05-25T02:32:14.440Z,11.06
2016-05-25T02:33:14.084Z,11.13
2016-05-25T02:34:14.056Z,11.01
2016-05-25T02:35:14.042Z,11.06
2016-05-25T02:36:14.014Z,11.07
2016-05-25T02:37:14.016Z,11.07
2016-05-25T02:38:13.988Z,11.14
2016-05-25T02:39:13.974Z,11.11
2016-05-25T02:40:13.962Z,11.14
2016-05-25T02:41:13.949Z,11.16
2016-05-25T02:42:13.921Z,11.13
2016-05-25T02:43:13.908Z,11.03
2016-05-25T02:44:13.894Z,11.09
2016-05-25T02:45:13.882Z,11.02
2016-05-25T02:46:14.385Z,11.09
2016-05-25T02:47:13.699Z,11.02
2016-05-25T02:48:13.827Z,11.03
2016-05-25T02:49:13.814Z,10.99
2016-05-25T02:50:13.817Z,11.06
2016-05-25T02:51:13.633Z,10.95
2016-05-25T02:52:13.634Z,11.07
2016-05-25T02:53:13.763Z,11.03
2016-05-25T02:54:13.749Z,11.07
2016-05-25T02:55:13.737Z,11.02
2016-05-25T02:56:13.709Z,11.01
2016-05-25T02:57:13.711Z,10.96
2016-05-25T02:58:13.698Z,11.06
2016-05-25T02:59:13.512Z,11.01
2016-05-25T03:00:13.656Z,11.01
2016-05-25T03:01:14.097Z,10.99
2016-05-25T03:02:13.662Z,10.99
2016-05-25T03:03:13.664Z,10.92
2016-05-25T03:04:13.589Z,10.95
2016-05-25T03:05:13.700Z,10.96
2016-05-25T03:06:13.579Z,10.99
2016-05-25T03:07:13.394Z,10.99
2016-05-25T03:08:13.537Z,10.95
2016-05-25T03:09:13.368Z,10.99
2016-05-25T03:10:13.527Z,11.03
2016-05-25T03:11:13.498Z,10.96
2016-05-25T03:12:13.486Z,10.98
2016-05-25T03:13:13.472Z,10.99
2016-05-25T03:14:13.444Z,11.02
2016-05-25T03:15:13.274Z,10.99
2016-05-25T03:16:14.387Z,10.99
2016-05-25T03:17:13.405Z,11.01
2016-05-25T03:18:13.377Z,10.98
2016-05-25T03:19:13.363Z,11.03
2016-05-25T03:20:13.366Z,10.96
2016-05-25T03:21:13.322Z,10.99
2016-05-25T03:22:13.310Z,10.95
2016-05-25T03:23:13.140Z,10.96
2016-05-25T03:24:13.284Z,10.94
2016-05-25T03:25:13.271Z,10.99
2016-05-25T03:26:13.243Z,10.94
2016-05-25T03:27:13.229Z,11.01
2016-05-25T03:28:13.216Z,11.02
2016-05-25T03:29:13.203Z,10.96
2016-05-25T03:30:12.893Z,10.94
2016-05-25T03:31:13.740Z,10.98
2016-05-25T03:32:13.180Z,10.95
2016-05-25T03:33:12.979Z,10.95
2016-05-25T03:34:13.123Z,11.02
2016-05-25T03:35:13.109Z,11.03
2016-05-25T03:36:13.097Z,10.96
2016-05-25T03:37:13.084Z,10.96
2016-05-25T03:38:12.914Z,11.01
2016-05-25T03:39:13.042Z,10.98
2016-05-25T03:40:13.030Z,10.98
2016-05-25T03:41:13.016Z,11.01
2016-05-25T03:42:13.003Z,11.02
2016-05-25T03:43:12.991Z,11.02
2016-05-25T03:44:12.962Z,10.96
2016-05-25T03:45:12.965Z,10.95
2016-05-25T03:46:12.999Z,11.01
2016-05-25T03:47:13.767Z,10.98
2016-05-25T03:48:12.755Z,10.98
2016-05-25T03:49:12.897Z,10.99
2016-05-25T03:50:12.885Z,10.99
2016-05-25T03:51:12.856Z,10.98
2016-05-25T03:52:12.859Z,11.02
2016-05-25T03:53:12.846Z,11.1
2016-05-25T03:54:12.817Z,10.99
2016-05-25T03:55:12.664Z,11.09
2016-05-25T03:56:12.791Z,11.09
2016-05-25T03:57:12.779Z,11.03
2016-05-25T03:58:12.454Z,10.96
2016-05-25T03:59:12.738Z,10.99
2016-05-25T04:00:12.724Z,11.02
2016-05-25T04:01:13.258Z,11.03
2016-05-25T04:02:13.152Z,11.11
2016-05-25T04:03:12.529Z,11.03
2016-05-25T04:04:12.673Z,11.09
2016-05-25T04:05:12.488Z,11.11
2016-05-25T04:06:12.631Z,11.19
2016-05-25T04:07:12.633Z,11.11
2016-05-25T04:08:12.606Z,11.16
2016-05-25T04:09:12.592Z,11.13
2016-05-25T04:10:12.579Z,11.06
2016-05-25T04:11:12.566Z,11.11
2016-05-25T04:12:12.584Z,11.16
2016-05-25T04:13:12.541Z,11.13
2016-05-25T04:14:12.356Z,11.2
2016-05-25T04:15:12.499Z,11.24
2016-05-25T04:16:12.658Z,11.29
2016-05-25T04:17:12.629Z,11.24
2016-05-25T04:18:12.444Z,11.29
2016-05-25T04:19:12.455Z,11.24
2016-05-25T04:20:12.466Z,11.29
2016-05-25T04:21:12.508Z,11.31
2016-05-25T04:22:12.488Z,11.31
2016-05-25T04:23:12.529Z,11.34
2016-05-25T04:24:12.478Z,11.35
2016-05-25T04:25:12.537Z,11.28
2016-05-25T04:26:12.485Z,11.29
2016-05-25T04:27:12.465Z,11.24
2016-05-25T04:28:12.460Z,11.28
2016-05-25T04:29:12.451Z,11.27
2016-05-25T04:30:12.816Z,11.27
2016-05-25T04:31:12.431Z,11.31
2016-05-25T04:32:12.265Z,11.38
2016-05-25T04:33:12.411Z,11.38
2016-05-25T04:34:12.384Z,11.31
2016-05-25T04:35:12.981Z,11.38
2016-05-25T04:36:12.361Z,11.47
2016-05-25T04:37:12.348Z,11.46
2016-05-25T04:38:12.337Z,11.41
2016-05-25T04:39:12.325Z,11.53
2016-05-25T04:40:13.483Z,11.47
2016-05-25T04:41:12.284Z,11.49
2016-05-25T04:42:12.271Z,11.52
2016-05-25T04:43:12.289Z,11.57
2016-05-25T04:44:12.090Z,11.43
2016-05-25T04:45:13.811Z,11.54
2016-05-25T04:46:12.517Z,11.52
2016-05-25T04:47:12.051Z,11.53
2016-05-25T04:48:12.178Z,11.49
2016-05-25T04:49:12.165Z,11.52
2016-05-25T04:50:12.028Z,11.54
2016-05-25T04:51:12.139Z,11.52
2016-05-25T04:52:12.142Z,11.52
2016-05-25T04:53:12.113Z,11.53
2016-05-25T04:54:12.101Z,11.53
2016-05-25T04:55:12.103Z,11.59
2016-05-25T04:56:12.074Z,11.64
2016-05-25T04:57:12.061Z,11.67
2016-05-25T04:58:12.049Z,11.68
2016-05-25T04:59:12.036Z,11.65
2016-05-25T05:00:12.008Z,11.75
2016-05-25T05:01:12.182Z,11.71
2016-05-25T05:02:12.294Z,11.82
2016-05-25T05:03:11.969Z,11.8
2016-05-25T05:04:11.799Z,11.7
2016-05-25T05:05:11.927Z,11.78
2016-05-25T05:06:11.757Z,11.68
2016-05-25T05:07:11.916Z,11.72
2016-05-25T05:08:11.732Z,11.77
2016-05-25T05:09:11.875Z,11.78
2016-05-25T05:10:11.862Z,11.77
2016-05-25T05:11:11.849Z,11.85
2016-05-25T05:12:11.837Z,11.78
2016-05-25T05:13:11.805Z,11.82
2016-05-25T05:14:11.807Z,11.78
2016-05-25T05:15:11.810Z,11.74
2016-05-25T05:16:11.642Z,11.7
2016-05-25T05:17:11.613Z,11.68
2016-05-25T05:18:11.740Z,11.71
2016-05-25T05:19:11.728Z,11.72
2016-05-25T05:20:11.714Z,11.68
2016-05-25T05:21:11.702Z,11.67
2016-05-25T05:22:11.689Z,11.64
2016-05-25T05:23:11.692Z,11.68
2016-05-25T05:24:11.663Z,11.8
2016-05-25T05:25:11.650Z,11.8
2016-05-25T05:26:13.718Z,11.82
2016-05-25T05:27:11.453Z,11.78
2016-05-25T05:28:11.595Z,11.77
2016-05-25T05:29:11.427Z,11.86
2016-05-25T05:30:11.569Z,11.96
2016-05-25T05:31:11.963Z,12.02
2016-05-25T05:32:11.263Z,11.97
2016-05-25T05:33:11.531Z,12.01
2016-05-25T05:34:11.518Z,12.04
2016-05-25T05:35:11.568Z,12.04
2016-05-25T05:36:11.321Z,11.99
2016-05-25T05:37:11.480Z,11.94
2016-05-25T05:38:11.451Z,11.99
2016-05-25T05:39:11.297Z,12.09
2016-05-25T05:40:11.424Z,12.09
2016-05-25T05:41:11.427Z,12.08
2016-05-25T05:42:11.399Z,11.99
2016-05-25T05:43:11.229Z,11.99
2016-05-25T05:44:11.357Z,11.96
2016-05-25T05:45:11.359Z,11.86
2016-05-25T05:46:11.191Z,11.89
2016-05-25T05:47:11.975Z,11.94
2016-05-25T05:48:11.306Z,11.9
2016-05-25T05:49:11.293Z,11.87
2016-05-25T05:50:11.279Z,11.94
2016-05-25T05:51:11.282Z,11.97
2016-05-25T05:52:11.254Z,11.9
2016-05-25T05:53:11.241Z,11.97
2016-05-25T05:54:11.244Z,11.96
2016-05-25T05:55:11.199Z,11.96
2016-05-25T05:56:11.046Z,11.9
2016-05-25T05:57:11.173Z,11.86
2016-05-25T05:58:11.161Z,11.89
2016-05-25T05:59:11.164Z,11.89
2016-05-25T06:00:11.150Z,11.94
2016-05-25T06:01:11.638Z,11.89
2016-05-25T06:02:11.108Z,11.72
2016-05-25T06:03:11.111Z,11.82
2016-05-25T06:04:11.067Z,11.78
2016-05-25T06:05:10.913Z,11.8
2016-05-25T06:06:11.057Z,11.85
2016-05-25T06:07:11.029Z,11.8
2016-05-25T06:08:11.015Z,11.8
2016-05-25T06:09:11.035Z,11.87
2016-05-25T06:10:11.005Z,11.93
2016-05-25T06:11:10.977Z,11.78
2016-05-25T06:12:10.808Z,11.82
2016-05-25T06:13:10.779Z,11.85
2016-05-25T06:14:10.938Z,11.93
2016-05-25T06:15:10.940Z,11.89
2016-05-25T06:16:10.896Z,11.89
2016-05-25T06:17:10.884Z,11.96
2016-05-25T06:18:10.870Z,12.01
2016-05-25T06:19:10.858Z,11.97
2016-05-25T06:20:10.845Z,12.05
2016-05-25T06:21:10.847Z,12.08
2016-05-25T06:22:10.804Z,12.08
2016-05-25T06:23:10.806Z,12.12
2016-05-25T06:24:10.778Z,12.02
2016-05-25T06:25:10.765Z,12.11
2016-05-25T06:26:10.751Z,12.13
2016-05-25T06:27:10.739Z,12.16
2016-05-25T06:28:10.397Z,12.2
2016-05-25T06:29:10.697Z,12.23
2016-05-25T06:30:10.386Z,12.29
2016-05-25T06:31:10.843Z,12.3
2016-05-25T06:32:10.658Z,12.34
2016-05-25T06:33:10.645Z,12.37
2016-05-25T06:34:10.633Z,12.39
2016-05-25T06:35:10.464Z,12.39
2016-05-25T06:36:10.607Z,12.41
2016-05-25T06:37:10.594Z,12.46
2016-05-25T06:38:10.425Z,12.48
2016-05-25T06:39:10.568Z,12.46
2016-05-25T06:40:10.555Z,12.44
2016-05-25T06:41:10.526Z,12.54
2016-05-25T06:42:10.514Z,12.54
2016-05-25T06:43:10.532Z,12.51
2016-05-25T06:44:10.504Z,12.52
2016-05-25T06:45:10.177Z,12.66
2016-05-25T06:46:10.477Z,12.67
2016-05-25T06:47:10.495Z,12.74
2016-05-25T06:48:10.435Z,12.75
2016-05-25T06:49:10.267Z,12.67
2016-05-25T06:50:10.409Z,12.69
2016-05-25T06:51:10.398Z,12.71
2016-05-25T06:52:10.384Z,12.67
2016-05-25T06:53:10.370Z,12.64
2016-05-25T06:54:10.359Z,12.64
2016-05-25T06:55:10.345Z,12.69
2016-05-25T06:56:10.020Z,12.66
2016-05-25T06:57:10.320Z,12.69
2016-05-25T06:58:10.306Z,12.6
2016-05-25T06:59:10.294Z,12.66
2016-05-25T07:00:10.280Z,12.52
2016-05-25T07:01:10.455Z,12.64
2016-05-25T07:02:10.395Z,12.59
2016-05-25T07:03:10.226Z,12.62
2016-05-25T07:04:10.213Z,12.57
2016-05-25T07:05:10.216Z,12.59
2016-05-25T07:06:10.031Z,12.49
2016-05-25T07:07:10.190Z,12.49
2016-05-25T07:08:10.161Z,12.49
2016-05-25T07:09:10.149Z,12.49
2016-05-25T07:10:10.166Z,12.45
2016-05-25T07:11:10.122Z,12.48
2016-05-25T07:12:09.954Z,12.48
2016-05-25T07:13:10.096Z,12.51
2016-05-25T07:14:10.084Z,12.48
2016-05-25T07:15:10.071Z,12.51
2016-05-25T07:16:10.057Z,12.44
2016-05-25T07:17:10.498Z,12.52
2016-05-25T07:18:09.860Z,12.42
2016-05-25T07:19:10.019Z,12.42
2016-05-25T07:20:09.990Z,12.44
2016-05-25T07:21:09.978Z,12.39
2016-05-25T07:22:09.965Z,12.41
2016-05-25T07:23:09.937Z,12.34
2016-05-25T07:24:09.798Z,12.41
2016-05-25T07:25:09.910Z,12.41
2016-05-25T07:26:09.912Z,12.49
2016-05-25T07:27:09.900Z,12.44
2016-05-25T07:28:09.872Z,12.49
2016-05-25T07:29:09.858Z,12.48
2016-05-25T07:30:09.861Z,12.46
2016-05-25T07:31:09.833Z,12.51
2016-05-25T07:32:09.695Z,12.48
2016-05-25T07:33:09.650Z,12.52
2016-05-25T07:34:09.778Z,12.63
2016-05-25T07:35:09.797Z,12.66
2016-05-25T07:36:09.783Z,12.69
2016-05-25T07:37:09.740Z,12.74
2016-05-25T07:38:09.742Z,12.81
2016-05-25T07:39:09.714Z,12.93
2016-05-25T07:40:09.700Z,12.92
2016-05-25T07:41:09.547Z,12.82
2016-05-25T07:42:09.674Z,12.81
2016-05-25T07:43:09.662Z,12.87
2016-05-25T07:44:09.649Z,12.82
2016-05-25T07:45:09.652Z,12.87
2016-05-25T07:46:09.623Z,12.95
2016-05-25T07:47:09.829Z,12.88
2016-05-25T07:48:09.597Z,12.95
2016-05-25T07:49:09.428Z,12.96
2016-05-25T07:50:09.588Z,13
2016-05-25T07:51:09.246Z,13.07
2016-05-25T07:52:09.530Z,13.17
2016-05-25T07:53:09.532Z,13.07
2016-05-25T07:54:09.551Z,13.09
2016-05-25T07:55:09.507Z,13.14
2016-05-25T07:56:09.354Z,13.09
2016-05-25T07:57:09.465Z,13.17
2016-05-25T07:58:09.155Z,13.22
2016-05-25T07:59:09.456Z,13.2
2016-05-25T08:00:09.442Z,13.11
2016-05-25T08:01:09.256Z,13.09
2016-05-25T08:02:09.650Z,12.97
2016-05-25T08:03:09.387Z,13.07
2016-05-25T08:04:09.375Z,13.12
2016-05-25T08:05:09.362Z,13.09
2016-05-25T08:06:09.349Z,13.17
2016-05-25T08:07:09.180Z,13.07
2016-05-25T08:08:09.323Z,13.06
2016-05-25T08:09:09.341Z,13.18
2016-05-25T08:10:09.297Z,13.22
2016-05-25T08:11:09.269Z,13.09
2016-05-25T08:12:09.272Z,13.2
2016-05-25T08:13:09.258Z,13.15
2016-05-25T08:14:09.229Z,13.09
2016-05-25T08:15:09.232Z,13.09
2016-05-25T08:16:09.204Z,13.17
2016-05-25T08:17:09.660Z,13.12
2016-05-25T08:33:25.331Z,13.62
2016-05-25T08:34:25.067Z,13.69
2016-05-25T08:35:25.367Z,13.83
2016-05-25T08:36:25.353Z,13.8
2016-05-25T08:37:25.373Z,13.87
2016-05-25T08:38:26.828Z,14.01
2016-05-25T08:39:25.316Z,14.19
2016-05-25T08:40:25.302Z,14.35
2016-05-25T08:41:25.305Z,14.5
2016-05-25T08:42:25.136Z,14.37
2016-05-25T08:43:25.638Z,14.42
2016-05-25T08:44:25.313Z,14.44
2016-05-25T08:45:25.253Z,14.44
2016-05-25T08:46:25.240Z,14.34
2016-05-25T08:47:25.118Z,14.37
2016-05-25T08:48:27.324Z,14.25
2016-05-25T08:49:25.045Z,14.27
2016-05-25T08:50:25.188Z,14.21
2016-05-25T08:51:25.191Z,14.16
2016-05-25T08:52:25.163Z,14.19
2016-05-25T08:53:25.149Z,14.06
2016-05-25T08:54:24.981Z,13.99
2016-05-25T08:55:25.124Z,13.98
2016-05-25T08:56:25.111Z,13.99
2016-05-25T08:57:25.098Z,13.88
2016-05-25T08:58:25.085Z,13.81
2016-05-25T08:59:25.088Z,13.8
2016-05-25T09:00:24.903Z,13.83
2016-05-25T09:01:25.250Z,13.84
2016-05-25T09:02:27.128Z,13.81
2016-05-25T09:03:25.020Z,13.79
2016-05-25T09:04:25.022Z,13.76
2016-05-25T09:05:25.011Z,13.87
2016-05-25T09:06:24.981Z,13.81
2016-05-25T09:07:24.984Z,13.87
2016-05-25T09:08:26.862Z,13.67
2016-05-25T09:09:24.630Z,13.83
2016-05-25T09:10:24.789Z,13.74
2016-05-25T09:11:24.917Z,13.8
2016-05-25T09:12:24.764Z,13.71
2016-05-25T09:13:24.750Z,13.76
2016-05-25T09:14:24.878Z,13.79
2016-05-25T09:15:24.881Z,13.83
2016-05-25T09:16:24.900Z,13.76
2016-05-25T09:17:26.526Z,13.79
2016-05-25T09:18:24.686Z,13.88
2016-05-25T09:19:25.016Z,13.79
2016-05-25T09:20:24.816Z,13.79
2016-05-25T09:21:24.804Z,13.73
2016-05-25T09:22:26.525Z,13.7
2016-05-25T09:23:24.762Z,13.8
2016-05-25T09:24:24.608Z,13.69
2016-05-25T09:25:24.595Z,13.73
2016-05-25T09:26:24.738Z,13.88
2016-05-25T09:27:26.678Z,13.8
2016-05-25T09:28:24.572Z,13.81
2016-05-25T09:29:24.700Z,13.81
2016-05-25T09:30:24.687Z,13.74
2016-05-25T09:31:24.518Z,13.79
2016-05-25T09:32:26.801Z,13.88
2016-05-25T09:33:24.632Z,13.95
2016-05-25T09:34:24.635Z,13.92
2016-05-25T09:35:24.606Z,13.99
2016-05-25T09:36:24.594Z,13.99
2016-05-25T09:37:24.596Z,14.01
2016-05-25T09:38:24.580Z,14.02
2016-05-25T09:39:24.568Z,14.07
2016-05-25T09:40:24.555Z,14.13
2016-05-25T09:41:24.541Z,14.06
2016-05-25T09:42:24.358Z,14.06
2016-05-25T09:43:24.517Z,14.1
2016-05-25T09:44:24.347Z,14.17
2016-05-25T09:45:24.490Z,14.17
2016-05-25T09:46:24.758Z,14.19
2016-05-25T09:47:28.045Z,14.19
2016-05-25T09:48:24.452Z,14.09
2016-05-25T09:49:24.454Z,14.16
2016-05-25T09:50:24.425Z,14.2
2016-05-25T09:51:24.413Z,14.14
2016-05-25T09:52:24.243Z,14.1
2016-05-25T09:53:24.402Z,14.2
2016-05-25T09:54:24.374Z,14.24
2016-05-25T09:55:24.360Z,14.2
2016-05-25T09:56:24.348Z,14.28
2016-05-25T09:57:24.334Z,14.34
2016-05-25T09:58:24.322Z,14.35
2016-05-25T09:59:24.309Z,14.43
2016-05-25T10:00:24.295Z,14.42
2016-05-25T10:01:24.298Z,14.52
2016-05-25T10:02:27.132Z,14.46
2016-05-25T10:03:24.257Z,14.44
2016-05-25T10:04:24.244Z,14.46
2016-05-25T10:05:24.247Z,14.43
2016-05-25T10:06:24.218Z,14.5
2016-05-25T10:07:25.220Z,14.49
2016-05-25T10:08:24.208Z,14.5
2016-05-25T10:09:24.023Z,14.56
2016-05-25T10:10:24.183Z,14.6
2016-05-25T10:11:24.153Z,14.69
2016-05-25T10:12:24.156Z,14.69
2016-05-25T10:13:24.144Z,14.8
2016-05-25T10:14:24.130Z,14.93
2016-05-25T10:15:24.117Z,14.84
2016-05-25T10:16:23.949Z,14.84
2016-05-25T10:17:24.264Z,14.93
2016-05-25T10:18:24.080Z,14.91
2016-05-25T10:19:24.066Z,14.99
2016-05-25T10:20:24.052Z,15.08
2016-05-25T10:21:24.055Z,15.13
2016-05-25T10:22:24.027Z,15.17
2016-05-25T10:23:23.874Z,15.33
2016-05-25T10:24:23.860Z,15.38
2016-05-25T10:25:23.833Z,15.31
2016-05-25T10:26:23.991Z,15.42
2016-05-25T10:27:23.978Z,15.54
2016-05-25T10:28:23.982Z,15.64
2016-05-25T10:29:23.952Z,15.67
2016-05-25T10:30:23.782Z,15.72
2016-05-25T10:31:23.785Z,15.84
2016-05-25T10:32:23.788Z,16.06
2016-05-25T10:33:23.604Z,16.27
2016-05-25T10:34:23.887Z,16.49
2016-05-25T10:35:23.890Z,16.5
2016-05-25T10:36:23.878Z,16.65
2016-05-25T10:37:23.708Z,16.7
2016-05-25T10:38:23.851Z,16.74
2016-05-25T10:39:23.854Z,16.75
2016-05-25T10:40:23.841Z,16.59
2016-05-25T10:41:23.844Z,16.74
2016-05-25T10:42:23.675Z,16.89
2016-05-25T10:43:23.803Z,16.93
2016-05-25T10:44:23.805Z,17.07
2016-05-25T10:45:23.791Z,17.15
2016-05-25T10:46:23.622Z,17.32
2016-05-25T10:47:23.797Z,17.36
2016-05-25T10:48:23.769Z,17.51
2016-05-25T10:49:23.772Z,17.54
2016-05-25T10:50:23.758Z,17.66
2016-05-25T10:51:23.746Z,17.79
2016-05-25T10:52:23.749Z,17.81
2016-05-25T10:53:23.736Z,17.84
2016-05-25T10:54:23.722Z,17.82
2016-05-25T10:55:23.569Z,17.73
2016-05-25T10:56:23.697Z,17.71
2016-05-25T10:57:26.230Z,17.64
2016-05-25T10:58:23.546Z,17.57
2016-05-25T10:59:23.689Z,17.67
2016-05-25T11:00:23.676Z,17.59
2016-05-25T11:01:23.882Z,17.38
2016-05-25T11:02:23.665Z,17.38
2016-05-25T11:03:23.497Z,17.36
2016-05-25T11:04:23.656Z,17.22
2016-05-25T11:05:23.643Z,17.14
2016-05-25T11:06:23.630Z,16.89
2016-05-25T11:07:23.632Z,16.71
2016-05-25T11:08:23.464Z,16.71
2016-05-25T11:09:23.606Z,16.75
2016-05-25T11:10:23.594Z,16.7
2016-05-25T11:11:23.597Z,16.62
2016-05-25T11:12:23.584Z,16.62
2016-05-25T11:13:23.586Z,16.59
2016-05-25T11:14:23.588Z,16.49
2016-05-25T11:15:23.560Z,16.5
2016-05-25T11:16:23.563Z,16.52
2016-05-25T11:17:23.394Z,16.45
2016-05-25T11:18:23.537Z,16.62
2016-05-25T11:19:23.540Z,16.53
2016-05-25T11:20:23.542Z,16.74
2016-05-25T11:21:23.498Z,16.71
2016-05-25T11:22:23.502Z,16.71
2016-05-25T11:23:23.488Z,16.67
2016-05-25T11:24:23.491Z,16.73
2016-05-25T11:25:23.321Z,16.71
2016-05-25T11:26:23.466Z,16.7
2016-05-25T11:27:24.858Z,16.74
2016-05-25T11:28:23.438Z,16.78
2016-05-25T11:29:23.285Z,16.85
2016-05-25T11:30:23.429Z,16.77
2016-05-25T11:31:23.259Z,16.7
2016-05-25T11:32:23.418Z,16.75
2016-05-25T11:33:23.390Z,16.75
2016-05-25T11:34:23.393Z,16.7
2016-05-25T11:35:23.240Z,16.65
2016-05-25T11:36:23.367Z,16.65
2016-05-25T11:37:23.212Z,16.68
2016-05-25T11:38:23.201Z,16.62
2016-05-25T11:39:23.328Z,16.62
2016-05-25T11:40:23.331Z,16.49
2016-05-25T11:41:23.318Z,16.44
2016-05-25T11:42:23.336Z,16.48
2016-05-25T11:43:23.292Z,16.41
2016-05-25T11:44:23.138Z,16.45
2016-05-25T11:45:23.281Z,16.58
2016-05-25T11:46:23.284Z,16.73
2016-05-25T11:47:26.865Z,16.68
2016-05-25T11:48:23.259Z,16.71
2016-05-25T11:49:23.245Z,16.86
2016-05-25T11:50:23.233Z,16.65
2016-05-25T11:51:23.063Z,16.83
2016-05-25T11:52:23.238Z,16.67
2016-05-25T11:53:23.256Z,16.67
2016-05-25T11:54:23.196Z,16.8
2016-05-25T11:55:23.183Z,16.92
2016-05-25T11:56:23.202Z,16.95
2016-05-25T11:57:23.157Z,16.98
2016-05-25T11:58:23.160Z,16.9
2016-05-25T11:59:23.163Z,16.9
2016-05-25T12:00:23.025Z,16.81
2016-05-25T12:01:23.137Z,16.85
2016-05-25T12:02:23.140Z,16.92
2016-05-25T12:03:24.299Z,16.89
2016-05-25T12:04:23.115Z,16.98
2016-05-25T12:05:22.960Z,16.92
2016-05-25T12:06:23.072Z,17.11
2016-05-25T12:07:22.918Z,17.1
2016-05-25T12:08:22.937Z,17.17
2016-05-25T12:09:23.049Z,17.23
2016-05-25T12:10:23.068Z,17.25
2016-05-25T12:11:22.929Z,17.32
2016-05-25T12:12:23.025Z,17.32
2016-05-25T12:13:23.029Z,17.3
2016-05-25T12:14:23.000Z,17.25
2016-05-25T12:15:23.003Z,17.29
2016-05-25T12:16:23.005Z,17.2
2016-05-25T12:17:23.649Z,17.17
2016-05-25T12:18:23.245Z,17.18
2016-05-25T12:19:22.951Z,17.26
2016-05-25T12:20:22.954Z,17.15
2016-05-25T12:21:22.941Z,17.15
2016-05-25T12:22:22.944Z,17.13
2016-05-25T12:23:22.931Z,17.14
2016-05-25T12:24:22.918Z,17.2
2016-05-25T12:25:22.905Z,17.25
2016-05-25T12:26:22.907Z,17.32
2016-05-25T12:27:22.879Z,17.3
2016-05-25T12:28:22.866Z,17.33
2016-05-25T12:29:22.853Z,17.36
2016-05-25T12:30:22.887Z,17.51
2016-05-25T12:31:22.890Z,17.4
2016-05-25T12:32:24.454Z,17.55
2016-05-25T12:33:22.832Z,17.57
2016-05-25T12:34:22.835Z,17.64
2016-05-25T12:35:22.807Z,17.84
2016-05-25T12:36:22.809Z,17.87
2016-05-25T12:37:22.656Z,17.88
2016-05-25T12:38:22.784Z,17.99
2016-05-25T12:39:22.802Z,17.97
2016-05-25T12:40:22.757Z,18.12
2016-05-25T12:41:22.745Z,18.13
2016-05-25T12:42:22.450Z,18.15
2016-05-25T12:43:22.750Z,18.18
2016-05-25T12:44:22.581Z,18.28
2016-05-25T12:45:22.725Z,18.29
2016-05-25T12:46:22.711Z,18.42
2016-05-25T12:47:23.651Z,18.59
2016-05-25T12:48:22.545Z,18.65
2016-05-25T12:49:22.720Z,18.76
2016-05-25T12:50:22.535Z,18.99
2016-05-25T12:51:22.677Z,19.36
2016-05-25T12:52:24.227Z,19.35
2016-05-25T12:53:22.652Z,19.63
2016-05-25T12:54:22.686Z,19.8
2016-05-25T12:55:22.486Z,19.93
2016-05-25T12:56:22.644Z,19.93
2016-05-25T12:57:22.646Z,20.13
2016-05-25T12:58:22.635Z,20.23
2016-05-25T12:59:22.637Z,20.23
2016-05-25T13:00:22.624Z,20.42
2016-05-25T13:01:22.657Z,20.79
2016-05-25T13:02:22.521Z,20.93
2016-05-25T13:03:22.616Z,21.13
2016-05-25T13:04:22.603Z,21.08
2016-05-25T13:05:22.591Z,21.36
2016-05-25T13:06:22.656Z,21.36
2016-05-25T13:07:22.455Z,21.41
2016-05-25T13:08:22.426Z,21.24
2016-05-25T13:09:22.585Z,21.24